Time;durP1;ratioP1;P1;durP2;ratioP2;P2;SDS_P1;SDS_P2;PMS_P1;PMS_P2;Temp;Humidity;BMP_temperature;BMP_pressure;BME280_temperature;BME280_humidity;BME280_pressure;Samples;Min_cycle;Max_cycle;Signal;HPM_P1;HPM_P2
2023/04/04 00:00:14;;;;;;;;;;;;;;;16.40;48.03;100116.53;5000207;28;1427;-48
2023/04/04 00:02:39;;;;;;;;;;;;;;;16.25;47.09;100103.75;5000779;28;1122;-50
2023/04/04 00:05:06;;;;;;;;;;;;;;;16.20;46.50;100081.88;4999850;28;1092;-51
2023/04/04 00:07:32;;;;;;;;;;;;;;;17.05;47.64;100067.81;4999565;28;1910;-46
2023/04/04 00:09:57;;;;;;;;;;;;;;;16.46;47.85;100067.09;5000498;28;1060;-49
2023/04/04 00:12:23;;;;;;;;;;;;;;;16.32;47.06;100056.78;5000704;28;1119;-50
2023/04/04 00:14:49;;;;;;;;;;;;;;;16.90;47.56;100046.84;5031269;28;1199;-50
2023/04/04 00:17:14;;;;;;;;;;;;;;;16.64;48.51;100038.88;5000103;28;1183;-46
2023/04/04 00:19:40;;;;;;;;;;;;;;;16.38;47.78;100033.69;4999841;28;1168;-50
2023/04/04 00:22:06;;;;;;;;;;;;;;;16.24;46.61;100033.56;4999924;28;1067;-49
2023/04/04 00:24:32;;;;;;;;;;;;;;;16.61;47.30;100036.72;4999451;28;1044;-50
2023/04/04 00:26:58;;;;;;;;;;;;;;;16.93;48.08;100027.88;4999712;28;1918;-48
2023/04/04 00:29:23;;;;;;;;;;;;;;;16.37;48.17;100026.56;4999687;28;1044;-50
2023/04/04 00:31:49;;;;;;;;;;;;;;;16.18;47.21;100011.94;4996816;28;1228;-48
2023/04/04 00:34:15;;;;;;;;;;;;;;;16.23;47.34;100009.16;4998511;28;1183;-48
2023/04/04 00:36:40;;;;;;;;;;;;;;;16.72;48.08;100005.31;4999638;28;1100;-48
2023/04/04 00:39:06;;;;;;;;;;;;;;;16.36;47.49;100005.72;4998034;28;1077;-49
2023/04/04 00:41:31;;;;;;;;;;;;;;;16.75;47.85;99993.72;4998131;28;1098;-51
2023/04/04 00:43:57;;;;;;;;;;;;;;;16.64;47.86;99991.41;4999781;28;1196;-50
2023/04/04 00:46:24;;;;;;;;;;;;;;;16.32;47.50;99990.94;4999112;28;1910;-50
2023/04/04 00:48:50;;;;;;;;;;;;;;;16.16;46.84;99975.75;4999377;28;1091;-49
2023/04/04 00:51:15;;;;;;;;;;;;;;;16.01;46.15;99961.09;4998079;28;1077;-50
2023/04/04 00:53:43;;;;;;;;;;;;;;;16.91;47.06;99963.34;4999590;28;1065;-49
2023/04/04 00:56:08;;;;;;;;;;;;;;;16.75;48.20;99954.50;4986017;28;1160;-48
2023/04/04 00:58:34;;;;;;;;;;;;;;;16.22;48.17;99964.44;4999969;28;1137;-51
2023/04/04 01:01:01;;;;;;;;;;;;;;;16.68;48.43;99952.09;4984918;28;1198;-50
2023/04/04 01:03:27;;;;;;;;;;;;;;;16.83;48.41;99936.53;4997686;28;1232;-49
2023/04/04 01:05:53;;;;;;;;;;;;;;;16.37;47.84;99937.94;5013975;28;1143;-51
2023/04/04 01:08:21;;;;;;;;;;;;;;;16.10;47.52;99935.78;5030316;28;1922;-48
2023/04/04 01:10:47;;;;;;;;;;;;;;;17.03;47.79;99921.75;4997660;28;1227;-49
2023/04/04 01:13:13;;;;;;;;;;;;;;;16.60;48.33;99903.34;4981461;28;1145;-49
2023/04/04 01:15:40;;;;;;;;;;;;;;;16.90;48.19;99913.13;4999074;28;1133;-47
2023/04/04 01:18:06;;;;;;;;;;;;;;;17.55;48.02;99910.75;4997368;28;1941;-49
2023/04/04 01:20:32;;;;;;;;;;;;;;;16.78;48.31;99901.72;5013666;28;1152;-49
2023/04/04 01:22:58;;;;;;;;;;;;;;;16.45;47.72;99906.28;4981467;28;1224;-52
2023/04/04 01:25:33;;;;;;;;;;;;;;;16.38;47.61;99895.66;5013839;28;1283;-49
2023/04/04 01:28:10;;;;;;;;;;;;;;;16.57;48.68;99904.75;4997443;28;1991;-48
2023/04/04 01:30:36;;;;;;;;;;;;;;;18.01;47.59;99912.69;4997138;28;1056;-50
2023/04/04 01:33:02;;;;;;;;;;;;;;;18.49;47.44;99899.63;4980756;28;1889;-50
2023/04/04 01:35:41;;;;;;;;;;;;;;;17.33;48.89;99892.16;4998724;28;1163;-52
2023/04/04 01:38:10;;;;;;;;;;;;;;;16.86;48.15;99898.31;4998534;28;1124;-51
2023/04/04 01:40:36;;;;;;;;;;;;;;;16.61;47.36;99888.50;5013535;28;1333;-47
2023/04/04 01:43:03;;;;;;;;;;;;;;;17.34;48.32;99883.59;4980937;28;1124;-51
2023/04/04 01:45:31;;;;;;;;;;;;;;;16.84;48.15;99875.81;4996549;28;1518;-48
2023/04/04 01:47:59;;;;;;;;;;;;;;;16.56;47.47;99880.34;4982841;28;1964;-50
2023/04/04 01:50:25;;;;;;;;;;;;;;;16.43;46.78;99865.44;4996764;28;1628;-48
2023/04/04 01:52:51;;;;;;;;;;;;;;;16.30;46.33;99861.47;4997778;28;1216;-47
2023/04/04 01:55:16;;;;;;;;;;;;;;;16.22;45.93;99838.25;4997830;28;1287;-49
2023/04/04 01:57:42;;;;;;;;;;;;;;;17.03;47.78;99848.38;4997469;28;923;-50
2023/04/04 02:00:08;;;;;;;;;;;;;;;16.47;47.63;99830.81;4996837;28;1314;-52
2023/04/04 02:02:42;;;;;;;;;;;;;;;16.29;47.09;99815.94;4997972;28;1048;-47
2023/04/04 02:05:09;;;;;;;;;;;;;;;16.77;47.70;99795.75;4997079;28;1346;-50
2023/04/04 02:07:34;;;;;;;;;;;;;;;16.90;48.29;99785.97;4997877;28;1930;-49
2023/04/04 02:10:01;;;;;;;;;;;;;;;16.42;47.98;99771.31;4996183;28;1127;-45
2023/04/04 02:12:26;;;;;;;;;;;;;;;16.23;47.14;99778.75;4996736;28;1088;-52
2023/04/04 02:14:52;;;;;;;;;;;;;;;16.16;46.41;99778.25;4998151;28;1025;-50
2023/04/04 02:17:18;;;;;;;;;;;;;;;17.28;47.29;99785.91;4996543;28;1041;-51
2023/04/04 02:19:44;;;;;;;;;;;;;;;16.74;48.19;99764.22;4996363;28;1210;-50
2023/04/04 02:22:09;;;;;;;;;;;;;;;16.53;47.73;99771.16;4997058;28;1083;-49
2023/04/04 02:24:35;;;;;;;;;;;;;;;17.51;48.04;99766.78;4997044;28;1311;-50
2023/04/04 02:27:00;;;;;;;;;;;;;;;16.76;48.22;99783.19;4997506;28;1975;-49
2023/04/04 02:29:26;;;;;;;;;;;;;;;16.32;47.76;99771.47;4997164;28;1164;-48
2023/04/04 02:31:52;;;;;;;;;;;;;;;16.31;47.16;99769.00;4997489;28;1179;-47
2023/04/04 02:34:18;;;;;;;;;;;;;;;16.87;48.45;99778.31;4997280;28;884;-48
2023/04/04 02:36:45;;;;;;;;;;;;;;;16.48;47.87;99773.97;4995991;28;1216;-46
2023/04/04 02:39:11;;;;;;;;;;;;;;;16.29;47.05;99768.50;4996197;28;1314;-50
2023/04/04 02:41:38;;;;;;;;;;;;;;;16.86;48.24;99762.97;4995882;28;1325;-50
2023/04/04 02:44:04;;;;;;;;;;;;;;;16.51;48.27;99774.22;4981289;28;1236;-50
2023/04/04 02:46:31;;;;;;;;;;;;;;;18.17;47.62;99766.56;4992722;28;1906;-54
2023/04/04 02:49:03;;;;;;;;;;;;;;;17.15;48.86;99761.94;4995425;28;1333;-51
2023/04/04 02:51:30;;;;;;;;;;;;;;;16.71;48.60;99748.38;4995314;28;1441;-54
2023/04/04 02:53:57;;;;;;;;;;;;;;;17.58;48.41;99753.44;4995425;28;1514;-50
2023/04/04 02:56:28;;;;;;;;;;;;;;;16.76;48.83;99759.28;4995249;28;1451;-51
2023/04/04 02:58:53;;;;;;;;;;;;;;;16.62;47.44;99752.91;4996830;28;883;-51
2023/04/04 03:01:19;;;;;;;;;;;;;;;16.43;47.10;99763.91;4997253;28;1109;-51
2023/04/04 03:03:45;;;;;;;;;;;;;;;17.22;47.85;99759.63;4997008;28;1001;-49
2023/04/04 03:06:11;;;;;;;;;;;;;;;16.82;48.24;99746.28;4997130;28;1052;-50
2023/04/04 03:08:37;;;;;;;;;;;;;;;16.54;47.30;99735.19;5028302;28;1984;-51
2023/04/04 03:11:03;;;;;;;;;;;;;;;16.31;47.16;99739.63;4995132;28;1433;-51
2023/04/04 03:13:29;;;;;;;;;;;;;;;16.32;46.09;99735.78;4997061;28;1172;-54
2023/04/04 03:16:07;;;;;;;;;;;;;;;17.03;47.90;99733.03;4996909;28;1108;-49
2023/04/04 03:18:44;;;;;;;;;;;;;;;16.48;47.67;99736.41;5009875;28;1218;-52
2023/04/04 03:21:10;;;;;;;;;;;;;;;16.31;46.77;99723.19;5011769;28;1136;-49
2023/04/04 03:23:35;;;;;;;;;;;;;;;17.46;47.61;99718.25;4995821;28;1118;-51
2023/04/04 03:26:01;;;;;;;;;;;;;;;16.53;48.33;99719.03;4995463;28;1286;-49
2023/04/04 03:28:28;;;;;;;;;;;;;;;16.36;47.24;99720.38;4996844;28;1906;-48
2023/04/04 03:30:53;;;;;;;;;;;;;;;16.22;46.70;99724.97;4994330;28;1191;-50
2023/04/04 03:33:20;;;;;;;;;;;;;;;16.09;46.50;99712.84;4981138;28;1227;-54
2023/04/04 03:35:46;;;;;;;;;;;;;;;17.54;47.41;99711.19;4995616;28;1362;-53
2023/04/04 03:38:12;;;;;;;;;;;;;;;16.58;48.39;99714.25;4996488;28;1208;-55
2023/04/04 03:40:38;;;;;;;;;;;;;;;17.75;47.92;99709.66;4996455;28;1240;-53
2023/04/04 03:43:10;;;;;;;;;;;;;;;17.56;48.80;99730.97;4994890;28;1210;-54
2023/04/04 03:45:35;;;;;;;;;;;;;;;16.83;48.71;99741.59;4994746;28;1296;-54
2023/04/04 03:48:01;;;;;;;;;;;;;;;16.70;47.71;99749.47;4996510;28;1910;-52
2023/04/04 03:50:30;;;;;;;;;;;;;;;16.50;46.80;99749.81;4995203;28;1317;-54
2023/04/04 03:52:57;;;;;;;;;;;;;;;16.93;48.64;99761.50;4995099;28;1316;-54
2023/04/04 03:55:25;;;;;;;;;;;;;;;16.55;48.03;99767.00;4992790;28;1267;-59
2023/04/04 03:57:53;;;;;;;;;;;;;;;16.49;47.25;99764.63;4991645;28;1667;-46
2023/04/04 04:00:19;;;;;;;;;;;;;;;16.25;46.66;99777.31;4995620;28;1338;-51
2023/04/04 04:02:45;;;;;;;;;;;;;;;16.18;46.02;99792.50;4994945;28;1234;-52
2023/04/04 04:05:11;;;;;;;;;;;;;;;16.11;45.60;99790.13;4992146;28;1456;-54
2023/04/04 04:07:36;;;;;;;;;;;;;;;17.10;46.92;99787.59;4999594;28;1985;-56
2023/04/04 04:10:02;;;;;;;;;;;;;;;16.28;47.88;99770.41;4998777;28;879;-55
2023/04/04 04:12:28;;;;;;;;;;;;;;;16.11;46.89;99775.59;5027067;28;1044;-53
2023/04/04 04:14:53;;;;;;;;;;;;;;;16.86;47.71;99779.44;4980109;28;1172;-55
2023/04/04 04:17:19;;;;;;;;;;;;;;;16.55;48.26;99766.19;4986413;28;1061;-54
2023/04/04 04:19:45;;;;;;;;;;;;;;;16.26;47.81;99745.22;4998436;28;1320;-51
2023/04/04 04:22:11;;;;;;;;;;;;;;;16.89;47.72;99743.19;4998027;28;1190;-51
2023/04/04 04:24:37;;;;;;;;;;;;;;;16.36;48.18;99733.28;4999731;28;1065;-54
2023/04/04 04:27:03;;;;;;;;;;;;;;;16.14;47.38;99714.69;4998334;28;1899;-55
2023/04/04 04:29:30;;;;;;;;;;;;;;;17.15;48.10;99687.78;4998510;28;1151;-52
2023/04/04 04:31:55;;;;;;;;;;;;;;;16.38;48.38;99673.44;4998423;28;1223;-52
2023/04/04 04:34:25;;;;;;;;;;;;;;;16.24;47.33;99665.13;4997955;28;1418;-52
2023/04/04 04:36:55;;;;;;;;;;;;;;;16.79;48.13;99658.19;4997660;28;1228;-54
2023/04/04 04:39:24;;;;;;;;;;;;;;;16.24;47.92;99645.94;4993612;28;1483;-50
2023/04/04 04:42:07;;;;;;;;;;;;;;;17.76;47.64;99639.78;4997433;28;1309;-49
2023/04/04 04:44:36;;;;;;;;;;;;;;;16.76;48.89;99633.00;5022814;28;1213;-50
2023/04/04 04:47:02;;;;;;;;;;;;;;;16.46;48.27;99586.88;4997973;28;1902;-52
2023/04/04 04:49:29;;;;;;;;;;;;;;;17.13;48.87;99563.69;5031041;28;1285;-53
2023/04/04 04:51:55;;;;;;;;;;;;;;;16.52;48.98;99571.94;4998063;28;1472;-51
2023/04/04 04:54:21;;;;;;;;;;;;;;;16.30;47.99;99583.56;4997665;28;2230;-50
2023/04/04 04:56:52;;;;;;;;;;;;;;;16.21;47.29;99610.88;4998049;28;1152;-54
2023/04/04 04:59:19;;;;;;;;;;;;;;;16.09;46.70;99641.53;4997543;28;1405;-52
2023/04/04 05:01:45;;;;;;;;;;;;;;;16.38;47.15;99681.66;4997710;28;1414;-50
2023/04/04 05:04:11;;;;;;;;;;;;;;;16.75;48.48;99694.50;4991749;28;1267;-52
2023/04/04 05:06:44;;;;;;;;;;;;;;;16.21;47.80;99735.13;4997263;28;1895;-52
2023/04/04 05:09:11;;;;;;;;;;;;;;;17.64;46.80;99765.16;4997803;28;1138;-53
2023/04/04 05:11:37;;;;;;;;;;;;;;;17.04;48.40;99786.84;5010117;28;1828;-54
2023/04/04 05:14:05;;;;;;;;;;;;;;;16.68;49.10;99795.63;4997445;28;1194;-57
2023/04/04 05:16:35;;;;;;;;;;;;;;;16.42;49.85;99811.66;4997324;28;1101;-55
2023/04/04 05:19:02;;;;;;;;;;;;;;;16.20;50.14;99820.44;4996922;28;1171;-55
2023/04/04 05:21:32;;;;;;;;;;;;;;;16.08;50.54;99813.47;4997164;28;1132;-55
2023/04/04 05:24:01;;;;;;;;;;;;;;;15.99;50.70;99825.38;4997231;28;1437;-56
2023/04/04 05:26:28;;;;;;;;;;;;;;;15.86;51.23;99826.91;4997049;28;1335;-55
2023/04/04 05:28:55;;;;;;;;;;;;;;;15.76;51.34;99827.00;4997404;28;1353;-56
2023/04/04 05:31:22;;;;;;;;;;;;;;;15.65;51.48;99834.50;4997145;28;1128;-55
2023/04/04 05:33:50;;;;;;;;;;;;;;;15.52;51.74;99825.84;4996801;28;1169;-56
2023/04/04 05:36:41;;;;;;;;;;;;;;;15.46;51.99;99837.16;4997335;28;1196;-53
2023/04/04 05:39:07;;;;;;;;;;;;;;;15.50;51.78;99816.28;4998529;28;1112;-57
2023/04/04 05:41:38;;;;;;;;;;;;;;;17.10;48.24;99807.63;4998376;28;965;-60
2023/04/04 05:44:12;;;;;;;;;;;;;;;16.29;50.10;99788.50;4997554;28;1054;-58
2023/04/04 05:46:37;;;;;;;;;;;;;;;15.89;51.03;99787.94;4996312;28;2011;-57
2023/04/04 05:49:03;;;;;;;;;;;;;;;15.70;51.63;99791.41;5016358;28;1068;-56
2023/04/04 05:51:30;;;;;;;;;;;;;;;15.54;51.92;99796.25;4996895;28;1210;-54
2023/04/04 05:54:08;;;;;;;;;;;;;;;15.46;52.09;99802.38;4997279;28;1144;-58
2023/04/04 05:56:36;;;;;;;;;;;;;;;16.42;49.99;99803.41;4996695;28;1143;-60
2023/04/04 05:59:05;;;;;;;;;;;;;;;16.73;49.16;99798.31;4996369;28;1419;-59
2023/04/04 06:01:36;;;;;;;;;;;;;;;16.03;50.89;99794.34;4995458;28;1337;-56
2023/04/04 06:04:08;;;;;;;;;;;;;;;15.74;51.57;99789.72;4996715;28;1156;-59
2023/04/04 06:06:34;;;;;;;;;;;;;;;17.00;48.54;99790.47;4990189;28;1977;-56
2023/04/04 06:09:02;;;;;;;;;;;;;;;16.17;50.66;99779.91;4996535;28;1350;-62
2023/04/04 06:11:27;;;;;;;;;;;;;;;15.83;51.38;99764.44;4997483;28;1140;-56
2023/04/04 06:14:01;;;;;;;;;;;;;;;15.65;51.91;99766.78;4996494;28;1410;-57
2023/04/04 06:16:27;;;;;;;;;;;;;;;15.57;52.28;99761.97;4996185;28;1131;-58
2023/04/04 06:18:53;;;;;;;;;;;;;;;17.02;48.87;99756.13;4997749;28;1239;-56
2023/04/04 06:21:18;;;;;;;;;;;;;;;16.58;49.79;99762.88;4996185;28;1295;-58
2023/04/04 06:23:44;;;;;;;;;;;;;;;16.03;51.03;99769.69;4997388;28;915;-61
2023/04/04 06:26:10;;;;;;;;;;;;;;;15.80;51.73;99776.00;4997680;28;1021;-60
2023/04/04 06:28:45;;;;;;;;;;;;;;;15.66;51.99;99773.91;4992417;28;1976;-63
2023/04/04 06:31:11;;;;;;;;;;;;;;;15.49;52.32;99759.88;5020074;28;1251;-63
2023/04/04 06:33:37;;;;;;;;;;;;;;;16.41;50.76;99764.19;4996379;28;1073;-58
2023/04/04 06:36:02;;;;;;;;;;;;;;;17.00;48.80;99757.53;4997117;28;1068;-59
2023/04/04 06:38:28;;;;;;;;;;;;;;;16.11;51.10;99742.69;4997552;28;1021;-62
2023/04/04 06:40:56;;;;;;;;;;;;;;;15.81;51.94;99737.31;5028883;28;1247;-57
2023/04/04 06:43:22;;;;;;;;;;;;;;;15.60;52.35;99734.00;4996044;28;1119;-59
2023/04/04 06:45:48;;;;;;;;;;;;;;;15.50;52.61;99740.41;4997126;28;1267;-61
2023/04/04 06:48:14;;;;;;;;;;;;;;;15.39;52.73;99734.22;4994661;28;1973;-57
2023/04/04 06:50:40;;;;;;;;;;;;;;;16.63;50.20;99724.34;4991860;28;1128;-57
2023/04/04 06:53:10;;;;;;;;;;;;;;;16.68;50.02;99713.28;4983577;28;1147;-63
2023/04/04 06:55:36;;;;;;;;;;;;;;;15.99;51.66;99700.06;4979549;28;2230;-57
2023/04/04 06:58:02;;;;;;;;;;;;;;;15.73;52.24;99699.56;4997215;28;1088;-62
2023/04/04 07:00:27;;;;;;;;;;;;;;;15.55;52.85;99692.94;4995216;28;1111;-63
2023/04/04 07:02:58;;;;;;;;;;;;;;;16.35;51.16;99672.09;4997202;28;1125;-55
2023/04/04 07:05:23;;;;;;;;;;;;;;;17.20;48.80;99662.97;4996829;28;1061;-58
2023/04/04 07:07:55;;;;;;;;;;;;;;;16.30;50.96;99647.50;4997370;28;1923;-57
2023/04/04 07:10:21;;;;;;;;;;;;;;;15.87;52.33;99639.38;4988013;28;1072;-57
2023/04/04 07:12:47;;;;;;;;;;;;;;;15.68;52.59;99653.03;4995711;28;974;-54
2023/04/04 07:15:13;;;;;;;;;;;;;;;15.56;52.64;99645.25;4997276;28;1211;-64
2023/04/04 07:17:39;;;;;;;;;;;;;;;16.05;52.16;99655.00;4989376;28;1255;-60
2023/04/04 07:20:06;;;;;;;;;;;;;;;17.13;49.19;99674.34;4987313;28;1165;-58
2023/04/04 07:22:31;;;;;;;;;;;;;;;16.24;51.19;99689.81;4977445;28;1251;-58
2023/04/04 07:24:57;;;;;;;;;;;;;;;15.91;52.25;99706.22;4994923;28;1113;-64
2023/04/04 07:27:23;;;;;;;;;;;;;;;15.85;52.65;99701.91;4995674;28;1969;-62
2023/04/04 07:29:48;;;;;;;;;;;;;;;17.17;49.32;99696.53;4996638;28;1146;-59
2023/04/04 07:32:14;;;;;;;;;;;;;;;16.28;51.24;99693.59;4988839;28;1235;-64
2023/04/04 07:34:40;;;;;;;;;;;;;;;15.89;52.38;99681.84;4977183;28;1068;-62
2023/04/04 07:37:06;;;;;;;;;;;;;;;15.74;52.51;99660.91;4991289;28;1192;-64
2023/04/04 07:39:31;;;;;;;;;;;;;;;15.91;52.32;99662.34;4986067;28;1306;-60
2023/04/04 07:41:57;;;;;;;;;;;;;;;17.33;48.61;99648.41;4998822;28;1131;-64
2023/04/04 07:44:22;;;;;;;;;;;;;;;16.42;51.05;99645.13;5000619;28;1021;-59
2023/04/04 07:46:48;;;;;;;;;;;;;;;16.02;52.19;99639.16;4999971;28;1903;-62
2023/04/04 07:49:14;;;;;;;;;;;;;;;15.77;52.58;99631.25;5000114;28;1231;-60
2023/04/04 07:51:40;;;;;;;;;;;;;;;15.66;52.67;99630.63;4987184;28;1064;-57
2023/04/04 07:54:06;;;;;;;;;;;;;;;16.37;51.42;99641.66;4984692;28;1185;-61
2023/04/04 07:56:31;;;;;;;;;;;;;;;17.03;49.65;99650.63;4999565;28;992;-60
2023/04/04 07:58:57;;;;;;;;;;;;;;;16.21;51.82;99655.56;4996167;28;1068;-58
2023/04/04 08:01:22;;;;;;;;;;;;;;;15.90;52.43;99655.25;5000314;28;1056;-58
2023/04/04 08:03:49;;;;;;;;;;;;;;;15.71;52.76;99653.28;5000244;28;1033;-64
2023/04/04 08:06:14;;;;;;;;;;;;;;;15.60;52.84;99646.31;4986890;28;1318;-62
2023/04/04 08:08:40;;;;;;;;;;;;;;;16.17;52.26;99657.31;5000466;28;1993;-64
2023/04/04 08:11:06;;;;;;;;;;;;;;;17.43;48.79;99652.88;4999595;28;1259;-62
2023/04/04 08:13:32;;;;;;;;;;;;;;;16.49;51.35;99643.91;5000118;28;1280;-62
2023/04/04 08:15:57;;;;;;;;;;;;;;;16.04;52.28;99645.16;4999681;28;1072;-62
2023/04/04 08:18:23;;;;;;;;;;;;;;;16.40;51.95;99644.59;4995504;28;1293;-60
2023/04/04 08:20:49;;;;;;;;;;;;;;;17.68;48.56;99650.72;4991282;28;1056;-58
2023/04/04 08:23:14;;;;;;;;;;;;;;;16.69;50.86;99649.03;4991010;28;1060;-57
2023/04/04 08:25:42;;;;;;;;;;;;;;;16.26;51.73;99649.22;4999421;28;1107;-59
2023/04/04 08:28:08;;;;;;;;;;;;;;;16.03;52.60;99664.63;4999139;28;1991;-55
2023/04/04 08:30:33;;;;;;;;;;;;;;;15.82;52.73;99680.56;4986951;28;1088;-58
2023/04/04 08:32:59;;;;;;;;;;;;;;;15.78;53.07;99674.00;4999920;28;1222;-59
2023/04/04 08:35:25;;;;;;;;;;;;;;;15.75;53.33;99664.44;4999187;28;1108;-54
2023/04/04 08:37:50;;;;;;;;;;;;;;;15.57;53.24;99674.28;4997305;28;1096;-59
2023/04/04 08:40:16;;;;;;;;;;;;;;;15.42;53.62;99672.56;4998311;28;1093;-59
2023/04/04 08:42:45;;;;;;;;;;;;;;;15.52;53.47;99671.63;5029974;28;1079;-59
2023/04/04 08:45:10;;;;;;;;;;;;;;;17.05;50.54;99683.28;4998864;28;1039;-56
2023/04/04 08:47:36;;;;;;;;;;;;;;;16.26;52.38;99673.91;4998773;28;1914;-62
2023/04/04 08:50:05;;;;;;;;;;;;;;;15.86;53.03;99684.34;4999031;28;1029;-59
2023/04/04 08:52:31;;;;;;;;;;;;;;;15.62;53.66;99682.44;4997909;28;1008;-60
2023/04/04 08:54:57;;;;;;;;;;;;;;;15.52;53.63;99686.13;4999082;28;1151;-60
2023/04/04 08:57:23;;;;;;;;;;;;;;;15.53;53.69;99706.13;5030831;28;1143;-59
2023/04/04 08:59:48;;;;;;;;;;;;;;;17.06;50.42;99685.72;5030630;28;1060;-59
2023/04/04 09:02:15;;;;;;;;;;;;;;;16.48;51.55;99683.44;4998625;28;1152;-59
2023/04/04 09:04:41;;;;;;;;;;;;;;;15.91;52.98;99678.81;5030875;28;1137;-59
2023/04/04 09:07:07;;;;;;;;;;;;;;;15.74;53.10;99680.09;4998854;28;1914;-61
2023/04/04 09:09:33;;;;;;;;;;;;;;;15.60;53.50;99679.19;5030186;28;1188;-59
2023/04/04 09:12:02;;;;;;;;;;;;;;;15.44;53.66;99686.75;4998058;28;1083;-59
2023/04/04 09:14:28;;;;;;;;;;;;;;;16.74;51.04;99690.09;4998929;28;1032;-60
2023/04/04 09:16:54;;;;;;;;;;;;;;;16.65;51.11;99697.41;4998810;28;1147;-58
2023/04/04 09:19:20;;;;;;;;;;;;;;;16.04;52.44;99690.97;4998734;28;1243;-60
2023/04/04 09:21:46;;;;;;;;;;;;;;;15.78;53.21;99707.75;4998831;28;1143;-60
2023/04/04 09:24:12;;;;;;;;;;;;;;;15.61;53.56;99702.72;4997805;28;1143;-60
2023/04/04 09:26:47;;;;;;;;;;;;;;;15.47;53.57;99707.28;4998605;28;1969;-59
2023/04/04 09:29:13;;;;;;;;;;;;;;;15.35;53.89;99705.78;4997404;28;1481;-53
2023/04/04 09:31:39;;;;;;;;;;;;;;;15.44;53.91;99710.63;4998039;28;1014;-53
2023/04/04 09:34:04;;;;;;;;;;;;;;;16.99;50.40;99701.78;4996869;28;1014;-56
2023/04/04 09:36:31;;;;;;;;;;;;;;;16.40;51.75;99695.91;4998346;28;973;-57
2023/04/04 09:38:56;;;;;;;;;;;;;;;15.85;52.98;99699.16;4986112;28;997;-57
2023/04/04 09:41:22;;;;;;;;;;;;;;;15.67;53.36;99704.31;5016479;28;1196;-56
2023/04/04 09:43:48;;;;;;;;;;;;;;;15.49;53.59;99699.59;5022603;28;1140;-55
2023/04/04 09:46:14;;;;;;;;;;;;;;;15.38;54.03;99710.66;4994118;28;1307;-57
2023/04/04 09:48:40;;;;;;;;;;;;;;;16.86;50.70;99708.88;4996385;28;1910;-57
2023/04/04 09:51:06;;;;;;;;;;;;;;;16.28;51.98;99710.06;4996834;28;1323;-59
2023/04/04 09:53:38;;;;;;;;;;;;;;;15.82;53.02;99717.03;4997593;28;1141;-59
2023/04/04 09:56:04;;;;;;;;;;;;;;;15.57;53.73;99707.16;4997269;28;1537;-45
2023/04/04 09:58:35;;;;;;;;;;;;;;;15.55;53.65;99698.44;5027629;28;1496;-45
2023/04/04 10:01:02;;;;;;;;;;;;;;;16.99;50.27;99690.81;4997789;28;1056;-46
2023/04/04 10:03:28;;;;;;;;;;;;;;;16.10;52.55;99695.25;4997546;28;869;-49
2023/04/04 10:06:00;;;;;;;;;;;;;;;15.77;53.35;99688.81;4994700;28;1203;-45
2023/04/04 10:08:26;;;;;;;;;;;;;;;15.63;53.39;99691.50;4996065;28;1974;-46
2023/04/04 10:10:55;;;;;;;;;;;;;;;15.42;53.81;99704.59;4996030;28;1237;-44
2023/04/04 10:13:25;;;;;;;;;;;;;;;16.42;51.98;99707.38;4994236;28;839;-45
2023/04/04 10:15:52;;;;;;;;;;;;;;;16.89;50.77;99700.03;4996371;28;1021;-44
2023/04/04 10:18:18;;;;;;;;;;;;;;;16.06;52.71;99708.75;4997642;28;1097;-44
2023/04/04 10:20:43;;;;;;;;;;;;;;;15.76;53.44;99692.69;4997913;28;1077;-43
2023/04/04 10:23:09;;;;;;;;;;;;;;;15.67;53.84;99701.56;4996373;28;1124;-55
2023/04/04 10:25:35;;;;;;;;;;;;;;;15.48;54.08;99697.97;4996997;28;1065;-55
2023/04/04 10:28:01;;;;;;;;;;;;;;;15.33;54.24;99701.69;4997261;28;1906;-49
2023/04/04 10:30:27;;;;;;;;;;;;;;;16.36;52.17;99705.84;4997789;28;1088;-55
2023/04/04 10:32:56;;;;;;;;;;;;;;;16.80;51.10;99698.25;4997234;28;1099;-52
2023/04/04 10:35:22;;;;;;;;;;;;;;;16.01;53.12;99688.81;4995836;28;1037;-51
2023/04/04 10:37:57;;;;;;;;;;;;;;;15.70;53.85;99697.44;4995918;28;1127;-56
2023/04/04 10:40:23;;;;;;;;;;;;;;;15.52;54.07;99699.81;4997186;28;1045;-56
2023/04/04 10:42:48;;;;;;;;;;;;;;;16.77;51.29;99706.00;4995670;28;1073;-60
2023/04/04 10:45:14;;;;;;;;;;;;;;;16.42;51.94;99704.66;4995791;28;1341;-58
2023/04/04 10:47:40;;;;;;;;;;;;;;;15.89;53.17;99702.94;4997198;28;1973;-56
2023/04/04 10:50:07;;;;;;;;;;;;;;;15.66;53.59;99699.94;4996671;28;1001;-55
2023/04/04 10:52:33;;;;;;;;;;;;;;;15.48;53.91;99707.00;4997372;28;1156;-57
2023/04/04 10:54:59;;;;;;;;;;;;;;;15.38;53.98;99696.97;4993961;28;977;-54
2023/04/04 10:57:25;;;;;;;;;;;;;;;16.06;53.04;99706.00;4977844;28;1430;-51
2023/04/04 10:59:59;;;;;;;;;;;;;;;16.96;50.53;99713.38;4981214;28;1267;-56
2023/04/04 11:02:58;;;;;;;;;;;;;;;16.05;52.85;99711.78;4995391;28;1176;-55
2023/04/04 11:05:36;;;;;;;;;;;;;;;15.73;53.80;99705.84;4964756;28;1359;-54
2023/04/04 11:08:01;;;;;;;;;;;;;;;15.53;54.04;99697.91;4997034;28;1977;-54
2023/04/04 11:10:30;;;;;;;;;;;;;;;15.42;54.29;99690.91;4997209;28;1084;-54
2023/04/04 11:13:03;;;;;;;;;;;;;;;16.92;51.03;99695.88;4996436;28;1065;-51
2023/04/04 11:15:28;;;;;;;;;;;;;;;16.43;51.81;99698.06;4985351;28;1193;-58
2023/04/04 11:17:56;;;;;;;;;;;;;;;15.91;53.05;99701.53;5001262;28;1138;-52
2023/04/04 11:20:22;;;;;;;;;;;;;;;15.69;53.77;99696.59;5003498;28;1177;-55
2023/04/04 11:23:08;;;;;;;;;;;;;;;15.53;53.68;99690.50;5003378;28;1133;-55
2023/04/04 11:25:35;;;;;;;;;;;;;;;15.37;53.97;99687.09;5002983;28;1247;-59
2023/04/04 11:28:13;;;;;;;;;;;;;;;16.01;53.22;99689.63;5003598;28;1967;-57
2023/04/04 11:30:46;;;;;;;;;;;;;;;16.97;50.70;99687.56;5003090;28;1115;-54
2023/04/04 11:33:12;;;;;;;;;;;;;;;16.05;52.90;99687.91;5003121;28;986;-56
2023/04/04 11:35:39;;;;;;;;;;;;;;;15.83;53.62;99693.16;5003133;28;1168;-57
2023/04/04 11:38:11;;;;;;;;;;;;;;;16.80;51.50;99698.25;4994012;28;1109;-56
2023/04/04 11:40:38;;;;;;;;;;;;;;;16.69;51.52;99692.13;4995480;28;1231;-56
2023/04/04 11:43:10;;;;;;;;;;;;;;;16.11;52.88;99694.13;5002899;28;1259;-56
2023/04/04 11:45:36;;;;;;;;;;;;;;;15.87;53.39;99689.53;4997471;28;1282;-59
2023/04/04 11:48:05;;;;;;;;;;;;;;;15.68;53.76;99680.44;4983638;28;1906;-56
2023/04/04 11:50:37;;;;;;;;;;;;;;;15.57;53.87;99686.06;4992988;28;1545;-49
2023/04/04 11:53:07;;;;;;;;;;;;;;;15.46;53.96;99684.56;4999170;28;1518;-53
2023/04/04 11:55:32;;;;;;;;;;;;;;;16.59;51.99;99687.63;4994609;28;1506;-51
2023/04/04 11:58:05;;;;;;;;;;;;;;;16.85;51.07;99690.75;4991704;28;1489;-55
2023/04/04 12:00:31;;;;;;;;;;;;;;;16.04;53.07;99677.25;4992091;28;1042;-59
2023/04/04 12:02:57;;;;;;;;;;;;;;;15.78;53.59;99674.84;5002553;28;927;-54
2023/04/04 12:05:22;;;;;;;;;;;;;;;15.65;54.01;99665.41;5002815;28;1152;-51
2023/04/04 12:07:48;;;;;;;;;;;;;;;17.13;50.48;99679.84;5002678;28;1910;-51
2023/04/04 12:10:14;;;;;;;;;;;;;;;16.76;51.36;99671.41;5003070;28;1162;-58
2023/04/04 12:12:41;;;;;;;;;;;;;;;16.14;52.77;99681.75;5001979;28;1145;-59
2023/04/04 12:15:08;;;;;;;;;;;;;;;15.89;53.28;99676.38;5001862;28;941;-58
2023/04/04 12:17:38;;;;;;;;;;;;;;;17.16;50.85;99690.22;4993481;28;1137;-58
2023/04/04 12:20:03;;;;;;;;;;;;;;;16.82;51.63;99674.09;4987255;28;1244;-57
2023/04/04 12:22:33;;;;;;;;;;;;;;;16.41;52.71;99675.56;5001591;28;1227;-60
2023/04/04 12:24:59;;;;;;;;;;;;;;;15.99;53.39;99675.41;5001504;28;1345;-52
2023/04/04 12:27:24;;;;;;;;;;;;;;;15.83;54.00;99672.03;5000967;28;1914;-55
2023/04/04 12:29:50;;;;;;;;;;;;;;;16.14;53.43;99674.34;4997495;28;1149;-54
2023/04/04 12:32:15;;;;;;;;;;;;;;;17.52;50.18;99664.78;4999810;28;1149;-54
2023/04/04 12:34:42;;;;;;;;;;;;;;;16.56;52.67;99667.13;5031174;28;1091;-55
2023/04/04 12:37:08;;;;;;;;;;;;;;;16.13;53.53;99670.00;4998761;28;1053;-55
2023/04/04 12:39:34;;;;;;;;;;;;;;;15.95;53.64;99657.91;4999493;28;1068;-48
2023/04/04 12:42:01;;;;;;;;;;;;;;;15.78;54.10;99646.59;4998215;28;1117;-56
2023/04/04 12:44:29;;;;;;;;;;;;;;;15.80;54.04;99655.41;4999453;28;1056;-54
2023/04/04 12:46:56;;;;;;;;;;;;;;;17.27;51.02;99652.38;4998495;28;1978;-58
2023/04/04 12:49:22;;;;;;;;;;;;;;;16.43;52.73;99662.38;4998600;28;1156;-60
2023/04/04 12:51:47;;;;;;;;;;;;;;;16.03;53.75;99653.66;4999144;28;1052;-57
2023/04/04 12:54:26;;;;;;;;;;;;;;;15.90;54.11;99655.25;4997917;28;1403;-54
2023/04/04 12:56:58;;;;;;;;;;;;;;;15.67;54.39;99646.75;4998192;28;1439;-59